Joplin, MO

3:09 AM CDT on April 26, 2017 (GMT -0500)
Joplin Regional | | Change Station

Elev 981 ft 37.15 °N, 94.50 °W | Updated 8 minutes ago

Partly Cloudy
Partly Cloudy
61 °F
Feels Like 61 °F
N
22
Wind Variable Wind from SW
Gusts 30 mph

Today
High -- | Low -- °F
--% Chance of Precip.
Yesterday
High -- | Low -- °F
Precip. -- in
Pressure 29.50 in
Visibility 10.0 miles
Clouds Scattered Clouds 700 ft
Dew Point 59 °F
Humidity 93%
Rainfall 0.64 in
Snow Depth Not available.
6:28 AM 8:03 PM
Waning Crescent, 0% visible
SPECI KJLN 260801Z AUTO 22019G26KT 10SM SCT007 16/15 A2950 RMK AO2 PK WND 22026/0757 PRESRR T01610150
Pressure 29.50 in
Visibility 10.0 miles
Clouds Scattered Clouds 700 ft
Dew Point 59 °F
Humidity 93%
Rainfall 0.64 in
Snow Depth Not available.
6:28 AM 8:03 PM
Waning Crescent, 0% visible
SPECI KJLN 260801Z AUTO 22019G26KT 10SM SCT007 16/15 A2950 RMK AO2 PK WND 22026/0757 PRESRR T01610150

Get Your Daily Forecast Email!

Thanks for signing up!

Be on the lookout for a verification email in your inbox.

You'll start receiving severe weather alerts in your inbox..

×

10-Day Weather Forecast

Almanac

Astronomy

Apr. 26, 2017 Rise Set
Actual Time
Civil Twilight
Nautical Twilight
Astronomical Twilight
Moon
Length of Visible Light
Length of Day
Tomorrow will be .
, % of the Moon is Illuminated

Today's Extremes

State Highs State Lows

Community

WunderPhotos

WunderBlog® & News

Nearby

Air Quality

  Air Quality AQ Index Pollutant
Not available.

Snow Depth

Station Depth Elevation

Earthquake Activity

City Distance Mag. Time & Date
Minimum magnitude displayed is 2.5.

Coastal Water Temperatures

Place Temperature

Stations

Nearby Weather Stations

Station Location Temp. Windchill Dew Point Humidity Wind Precip. Elev Updated Type
                   

Watches & Warnings

Flood Watch / Flood Statement
Issued: 2:57 AM CDT Apr. 26, 2017 – National Weather Service

... Flash Flood Watch is cancelled...

The Flash Flood Watch for portions of southeast Kansas and
southwest Missouri has been cancelled. The area of heaviest rain
has quickly moved through the area this morning... ending the
threat of flash flooding.


Boxell